createdAt,value
2023-04-28T00:00:40.460Z,100862.31
2023-04-28T00:03:21.196Z,100867.31
2023-04-28T00:05:49.648Z,100867.22
2023-04-28T00:08:17.440Z,100876.66
2023-04-28T00:10:45.824Z,100871.47
2023-04-28T00:13:13.488Z,100869.63
2023-04-28T00:15:41.394Z,100866.94
2023-04-28T00:18:09.031Z,100871.06
2023-04-28T00:20:37.086Z,100876.06
2023-04-28T00:23:05.019Z,100877.81
2023-04-28T00:25:33.235Z,100869.06
2023-04-28T00:28:01.626Z,100856.09
2023-04-28T00:30:31.343Z,100865.41
2023-04-28T00:32:59.014Z,100867.97
2023-04-28T00:35:27.065Z,100867.69
2023-04-28T00:37:54.932Z,100871.81
2023-04-28T00:40:23.549Z,100873.31
2023-04-28T00:42:51.264Z,100876.69
2023-04-28T00:45:19.307Z,100876.56
2023-04-28T00:47:47.018Z,100879.88
2023-04-28T00:50:16.595Z,100875.72
2023-04-28T00:52:44.310Z,100879.78
2023-04-28T00:55:14.870Z,100884.72
2023-04-28T00:57:43.310Z,100873.47
2023-04-28T01:00:12.249Z,100881.09
2023-04-28T01:02:40.076Z,100878.41
2023-04-28T01:05:10.238Z,100880.88
2023-04-28T01:07:39.119Z,100883.53
2023-04-28T01:10:08.891Z,100889.34
2023-04-28T01:12:36.941Z,100894.34
2023-04-28T01:15:05.394Z,100900.22
2023-04-28T01:17:34.351Z,100893.34
2023-04-28T01:20:03.145Z,100899.25
2023-04-28T01:22:31.011Z,100894.06
2023-04-28T01:25:00.311Z,100895.66
2023-04-28T01:27:28.109Z,100895.03
2023-04-28T01:29:57.390Z,100893.19
2023-04-28T01:32:25.212Z,100895.59
2023-04-28T01:34:53.139Z,100892.97
2023-04-28T01:37:20.880Z,100893.69
2023-04-28T01:39:48.843Z,100900.53
2023-04-28T01:42:16.526Z,100894.47
2023-04-28T01:44:44.396Z,100894.44
2023-04-28T01:47:12.050Z,100890.06
2023-04-28T01:49:39.922Z,100893.59
2023-04-28T01:52:08.768Z,100903.59
2023-04-28T01:54:36.783Z,100901.91
2023-04-28T01:57:04.444Z,100902.66
2023-04-28T01:59:33.182Z,100903.38
2023-04-28T02:02:01.145Z,100906.75
2023-04-28T02:04:29.432Z,100907.47
2023-04-28T02:06:57.142Z,100903.97
2023-04-28T02:09:25.225Z,100907.31
2023-04-28T02:11:52.863Z,100907.22
2023-04-28T02:14:22.049Z,100908.13
2023-04-28T02:16:49.792Z,100905.44
2023-04-28T02:19:17.769Z,100903.69
2023-04-28T02:21:45.428Z,100913.84
2023-04-28T02:24:15.204Z,100903.50
2023-04-28T02:26:43.034Z,100900.91
2023-04-28T02:29:11.021Z,100900.91
2023-04-28T02:31:38.783Z,100910.38
2023-04-28T02:34:06.768Z,100906.72
2023-04-28T02:36:34.414Z,100905.91
2023-04-28T02:39:02.413Z,100902.41
2023-04-28T02:41:31.210Z,100915.19
2023-04-28T02:43:59.232Z,100914.16
2023-04-28T02:46:27.308Z,100914.09
2023-04-28T02:48:55.248Z,100908.16
2023-04-28T02:51:22.960Z,100912.50
2023-04-28T02:53:51.122Z,100917.84
2023-04-28T02:56:19.000Z,100918.53
2023-04-28T02:58:46.914Z,100905.56
2023-04-28T03:01:14.658Z,100909.72
2023-04-28T03:03:42.738Z,100919.28
2023-04-28T03:06:10.781Z,100917.63
2023-04-28T03:08:38.961Z,100916.75
2023-04-28T03:11:07.288Z,100924.50
2023-04-28T03:13:36.241Z,100918.66
2023-04-28T03:16:04.456Z,100925.47
2023-04-28T03:18:32.478Z,100919.06
2023-04-28T03:21:00.134Z,100919.25
2023-04-28T03:23:29.530Z,100926.63
2023-04-28T03:25:57.301Z,100928.41
2023-04-28T03:28:26.434Z,100928.41
2023-04-28T03:30:54.061Z,100924.53
2023-04-28T03:33:22.516Z,100934.03
2023-04-28T03:35:50.749Z,100930.50
2023-04-28T03:38:18.850Z,100933.81
2023-04-28T03:40:46.804Z,100932.75
2023-04-28T03:43:27.317Z,100928.25
2023-04-28T03:46:16.416Z,100930.16
2023-04-28T03:48:46.183Z,100924.34
2023-04-28T03:51:14.300Z,100927.81
2023-04-28T03:53:42.968Z,100919.44
2023-04-28T03:56:10.769Z,100917.66
2023-04-28T03:58:40.465Z,100918.63
2023-04-28T04:01:08.172Z,100930.78
2023-04-28T04:03:36.176Z,100930.69
2023-04-28T04:06:04.121Z,100926.03
2023-04-28T04:08:33.411Z,100935.38
2023-04-28T04:11:01.416Z,100934.59
2023-04-28T04:13:29.348Z,100933.16
2023-04-28T04:15:57.821Z,100941.63
2023-04-28T04:18:26.327Z,100937.75
2023-04-28T04:21:19.002Z,100939.09
2023-04-28T04:23:48.265Z,100943.97
2023-04-28T04:26:16.073Z,100937.56
2023-04-28T04:28:44.035Z,100941.03
2023-04-28T04:31:12.497Z,100942.94
2023-04-28T04:33:40.616Z,100947.53
2023-04-28T04:36:08.519Z,100950.81
2023-04-28T04:38:36.521Z,100952.28
2023-04-28T04:41:14.240Z,100944.88
2023-04-28T04:43:42.487Z,100951.00
2023-04-28T04:46:10.209Z,100951.88
2023-04-28T04:48:38.230Z,100953.28
2023-04-28T04:51:05.992Z,100947.22
2023-04-28T04:53:34.426Z,100949.72
2023-04-28T04:56:02.751Z,100951.91
2023-04-28T04:58:32.725Z,100949.84
2023-04-28T05:01:20.316Z,100947.94
2023-04-28T05:03:48.795Z,100947.06
2023-04-28T05:06:16.657Z,100958.94
2023-04-28T05:08:47.599Z,100955.19
2023-04-28T05:11:16.278Z,100951.13
2023-04-28T05:13:45.565Z,100948.44
2023-04-28T05:16:14.034Z,100946.53
2023-04-28T05:19:07.951Z,100950.06
2023-04-28T05:21:35.882Z,100951.69
2023-04-28T05:24:04.840Z,100957.22
2023-04-28T05:26:32.801Z,100953.16
2023-04-28T05:29:06.954Z,100952.88
2023-04-28T05:31:35.059Z,100957.25
2023-04-28T05:34:03.286Z,100952.81
2023-04-28T05:36:32.062Z,100955.06
2023-04-28T05:39:00.591Z,100952.50
2023-04-28T05:41:28.714Z,100957.22
2023-04-28T05:43:56.821Z,100951.69
2023-04-28T05:46:30.795Z,100958.72
2023-04-28T05:49:00.916Z,100956.47
2023-04-28T05:51:34.113Z,100957.47
2023-04-28T05:54:03.211Z,100951.88
2023-04-28T05:56:32.469Z,100963.31
2023-04-28T05:59:04.302Z,100962.13
2023-04-28T06:01:32.579Z,100969.38
2023-04-28T06:04:00.838Z,100969.03
2023-04-28T06:06:29.081Z,100969.97
2023-04-28T06:08:57.323Z,100969.28
2023-04-28T06:11:26.865Z,100966.66
2023-04-28T06:13:54.828Z,100964.84
2023-04-28T06:16:23.605Z,100969.25
2023-04-28T06:18:52.080Z,100963.81
2023-04-28T06:21:21.516Z,100967.66
2023-04-28T06:23:49.248Z,100967.50
2023-04-28T06:26:18.380Z,100966.63
2023-04-28T06:28:46.536Z,100964.44
2023-04-28T06:31:14.798Z,100967.66
2023-04-28T06:33:42.465Z,100974.66
2023-04-28T06:36:13.968Z,100982.31
2023-04-28T06:38:43.863Z,100979.72
2023-04-28T06:41:11.994Z,100981.19
2023-04-28T06:43:41.215Z,100984.84
2023-04-28T06:46:12.527Z,100981.75
2023-04-28T06:48:40.435Z,100980.00
2023-04-28T06:51:08.332Z,100981.38
2023-04-28T06:53:36.339Z,100981.53
2023-04-28T06:56:04.551Z,100978.91
2023-04-28T06:58:32.309Z,100983.91
2023-04-28T07:01:00.235Z,100979.78
2023-04-28T07:03:28.065Z,100980.41
2023-04-28T07:05:56.152Z,100986.97
2023-04-28T07:08:23.798Z,100986.81
2023-04-28T07:10:52.154Z,100984.66
2023-04-28T07:13:19.805Z,100983.91
2023-04-28T07:15:48.014Z,100981.19
2023-04-28T07:18:16.316Z,100984.88
2023-04-28T07:20:44.856Z,100977.44
2023-04-28T07:23:12.595Z,100981.03
2023-04-28T07:25:41.359Z,100969.97
2023-04-28T07:28:09.353Z,100965.47
2023-04-28T07:30:37.224Z,100966.75
2023-04-28T07:33:05.046Z,100970.91
2023-04-28T07:35:33.394Z,100960.88
2023-04-28T07:38:02.248Z,100961.50
2023-04-28T07:40:30.392Z,100962.88
2023-04-28T07:42:58.352Z,100965.84
2023-04-28T07:45:26.360Z,100960.38
2023-04-28T07:47:54.118Z,100950.47
2023-04-28T07:50:22.298Z,100948.47
2023-04-28T07:52:49.996Z,100946.28
2023-04-28T07:55:17.986Z,100950.25
2023-04-28T07:57:45.667Z,100946.00
2023-04-28T08:00:14.169Z,100940.78
2023-04-28T08:02:42.081Z,100937.81
2023-04-28T08:05:11.052Z,100938.13
2023-04-28T08:07:38.931Z,100946.50
2023-04-28T08:10:07.380Z,100937.03
2023-04-28T08:12:35.064Z,100932.00
2023-04-28T08:15:04.009Z,100928.88
2023-04-28T08:17:31.734Z,100931.84
2023-04-28T08:20:00.326Z,100938.81
2023-04-28T08:22:28.112Z,100923.88
2023-04-28T08:24:56.096Z,100926.16
2023-04-28T08:27:25.694Z,100921.50
2023-04-28T08:29:53.865Z,100918.28
2023-04-28T08:32:21.562Z,100915.69
2023-04-28T08:34:50.101Z,100919.66
2023-04-28T08:37:17.902Z,100914.25
2023-04-28T08:39:46.436Z,100917.31
2023-04-28T08:42:14.836Z,100918.16
2023-04-28T08:44:42.782Z,100917.00
2023-04-28T08:47:14.738Z,100913.44
2023-04-28T08:49:44.283Z,100912.97
2023-04-28T08:52:16.860Z,100911.19
2023-04-28T08:54:47.251Z,100916.69
2023-04-28T08:57:15.176Z,100917.84
2023-04-28T08:59:43.138Z,100917.59
2023-04-28T09:02:11.327Z,100911.34
2023-04-28T09:04:39.878Z,100912.22
2023-04-28T09:07:14.482Z,100909.16
2023-04-28T09:09:42.528Z,100901.25
2023-04-28T09:12:10.140Z,100898.66
2023-04-28T09:14:39.220Z,100902.34
2023-04-28T09:17:16.634Z,100900.84
2023-04-28T09:19:44.765Z,100894.00
2023-04-28T09:22:24.969Z,100894.50
2023-04-28T09:24:55.832Z,100889.28
2023-04-28T09:27:29.854Z,100885.31
2023-04-28T09:29:57.918Z,100888.84
2023-04-28T09:32:28.182Z,100882.81
2023-04-28T09:34:57.287Z,100887.25
2023-04-28T09:37:27.372Z,100884.56
2023-04-28T09:39:55.916Z,100883.69
2023-04-28T09:42:47.985Z,100875.47
2023-04-28T09:45:16.680Z,100872.09
2023-04-28T09:47:48.378Z,100885.25
2023-04-28T09:50:18.321Z,100872.66
2023-04-28T09:52:57.305Z,100870.75
2023-04-28T09:55:27.399Z,100867.03
2023-04-28T09:57:56.575Z,100862.84
2023-04-28T10:00:25.074Z,100861.34
2023-04-28T10:02:53.596Z,100857.63
2023-04-28T10:05:23.669Z,100857.63
2023-04-28T10:07:54.121Z,100854.66
2023-04-28T10:10:22.837Z,100847.03
2023-04-28T10:12:52.085Z,100855.94
2023-04-28T10:15:20.435Z,100841.59
2023-04-28T10:17:50.911Z,100829.06
2023-04-28T10:20:20.410Z,100833.06
2023-04-28T10:23:06.802Z,100841.97
2023-04-28T10:25:37.366Z,100821.81
2023-04-28T10:28:09.561Z,100822.38
2023-04-28T10:30:38.177Z,100825.13
2023-04-28T10:33:14.986Z,100821.03
2023-04-28T10:35:45.733Z,100816.91
2023-04-28T10:38:17.720Z,100824.50
2023-04-28T10:40:47.468Z,100819.84
2023-04-28T10:43:34.566Z,100817.38
2023-04-28T10:46:06.909Z,100824.66
2023-04-28T10:48:34.870Z,100811.56
2023-04-28T10:51:09.953Z,100813.75
2023-04-28T10:53:47.319Z,100802.00
2023-04-28T10:56:25.384Z,100794.94
2023-04-28T10:58:57.283Z,100793.59
2023-04-28T11:01:26.759Z,100793.72
2023-04-28T11:04:08.145Z,100784.88
2023-04-28T11:06:40.218Z,100785.41
2023-04-28T11:09:20.059Z,100790.06
2023-04-28T11:12:10.641Z,100780.00
2023-04-28T11:14:40.851Z,100782.50
2023-04-28T11:17:13.248Z,100781.72
2023-04-28T11:19:43.244Z,100778.75
2023-04-28T11:22:23.648Z,100773.34
2023-04-28T11:25:01.404Z,100778.13
2023-04-28T11:27:32.341Z,100775.34
2023-04-28T11:30:01.644Z,100775.19
2023-04-28T11:32:34.537Z,100778.34
2023-04-28T11:35:04.594Z,100768.19
2023-04-28T11:37:32.785Z,100764.09
2023-04-28T11:40:11.395Z,100766.13
2023-04-28T11:42:48.644Z,100765.91
2023-04-28T11:45:16.495Z,100760.00
2023-04-28T11:47:44.462Z,100759.34
2023-04-28T11:50:14.217Z,100765.97
2023-04-28T11:52:53.706Z,100756.09
2023-04-28T11:55:21.809Z,100751.63
2023-04-28T11:57:49.785Z,100752.13
2023-04-28T12:00:22.495Z,100759.31
2023-04-28T12:02:51.133Z,100757.63
2023-04-28T12:05:20.852Z,100757.91
2023-04-28T12:07:48.921Z,100752.22
2023-04-28T12:10:17.734Z,100744.84
2023-04-28T12:12:51.818Z,100743.88
2023-04-28T12:15:22.411Z,100736.94
2023-04-28T12:17:51.476Z,100732.22
2023-04-28T12:20:39.744Z,100732.69
2023-04-28T12:23:08.612Z,100731.53
2023-04-28T12:25:45.052Z,100737.97
2023-04-28T12:28:13.091Z,100727.06
2023-04-28T12:30:43.943Z,100735.94
2023-04-28T12:33:29.750Z,100730.28
2023-04-28T12:35:58.303Z,100720.72
2023-04-28T12:38:28.230Z,100713.38
2023-04-28T12:40:56.619Z,100711.41
2023-04-28T12:43:24.893Z,100709.19
2023-04-28T12:45:54.001Z,100698.72
2023-04-28T12:48:26.244Z,100705.69
2023-04-28T12:50:53.973Z,100703.97
2023-04-28T12:53:21.973Z,100708.22
2023-04-28T12:55:49.702Z,100688.47
2023-04-28T12:58:18.400Z,100692.06
2023-04-28T13:00:46.136Z,100692.97
2023-04-28T13:03:15.864Z,100698.44
2023-04-28T13:05:44.319Z,100700.16
2023-04-28T13:08:13.561Z,100685.00
2023-04-28T13:10:41.605Z,100686.16
2023-04-28T13:13:09.545Z,100684.41
2023-04-28T13:15:38.951Z,100674.47
2023-04-28T13:18:07.246Z,100679.94
2023-04-28T13:20:34.951Z,100679.09
2023-04-28T13:23:03.608Z,100676.38
2023-04-28T13:25:31.457Z,100672.00
2023-04-28T13:27:59.420Z,100672.78
2023-04-28T13:30:27.300Z,100681.72
2023-04-28T13:32:57.403Z,100674.34
2023-04-28T13:35:26.266Z,100668.44
2023-04-28T13:38:01.683Z,100668.69
2023-04-28T13:40:30.013Z,100665.63
2023-04-28T13:42:58.102Z,100665.75
2023-04-28T13:45:26.909Z,100666.75
2023-04-28T13:47:55.550Z,100664.25
2023-04-28T13:50:23.190Z,100660.09
2023-04-28T13:52:51.248Z,100652.28
2023-04-28T13:55:18.980Z,100652.78
2023-04-28T13:57:47.029Z,100643.72
2023-04-28T14:00:15.588Z,100649.63
2023-04-28T14:02:44.011Z,100645.16
2023-04-28T14:05:12.247Z,100634.66
2023-04-28T14:07:40.271Z,100637.34
2023-04-28T14:10:08.347Z,100637.97
2023-04-28T14:12:36.806Z,100645.44
2023-04-28T14:15:06.160Z,100635.88
2023-04-28T14:17:34.821Z,100630.78
2023-04-28T14:20:02.804Z,100630.28
2023-04-28T14:22:31.293Z,100625.16
2023-04-28T14:24:59.280Z,100624.63
2023-04-28T14:27:29.392Z,100618.03
2023-04-28T14:29:57.243Z,100617.91
2023-04-28T14:32:25.226Z,100619.81
2023-04-28T14:34:52.897Z,100614.63
2023-04-28T14:37:21.302Z,100621.19
2023-04-28T14:39:49.941Z,100626.56
2023-04-28T14:42:18.063Z,100617.34
2023-04-28T14:44:46.403Z,100611.22
2023-04-28T14:47:14.748Z,100618.34
2023-04-28T14:49:42.466Z,100616.91
2023-04-28T14:52:10.740Z,100616.94
2023-04-28T14:54:38.490Z,100610.81
2023-04-28T14:57:07.268Z,100611.03
2023-04-28T14:59:35.993Z,100606.25
2023-04-28T15:02:04.094Z,100603.38
2023-04-28T15:04:32.897Z,100591.50
2023-04-28T15:07:01.834Z,100595.34
2023-04-28T15:09:29.569Z,100589.94
2023-04-28T15:11:57.959Z,100585.59
2023-04-28T15:14:25.739Z,100581.41
2023-04-28T15:16:53.991Z,100579.09
2023-04-28T15:19:21.648Z,100583.97
2023-04-28T15:21:50.032Z,100574.69
2023-04-28T15:24:21.387Z,100581.03
2023-04-28T15:26:49.300Z,100577.47
2023-04-28T15:29:17.004Z,100576.31
2023-04-28T15:31:46.535Z,100576.19
2023-04-28T15:34:14.467Z,100573.19
2023-04-28T15:36:44.706Z,100566.41
2023-04-28T15:39:12.564Z,100570.00
2023-04-28T15:41:40.640Z,100560.81
2023-04-28T15:44:09.917Z,100566.22
2023-04-28T15:46:38.057Z,100566.34
2023-04-28T15:49:05.759Z,100563.44
2023-04-28T15:51:33.814Z,100563.94
2023-04-28T15:54:01.622Z,100563.09
2023-04-28T15:56:31.034Z,100561.28
2023-04-28T15:58:58.942Z,100557.75
2023-04-28T16:01:26.926Z,100559.72
2023-04-28T16:03:54.787Z,100554.06
2023-04-28T16:06:22.819Z,100554.84
2023-04-28T16:08:50.509Z,100556.56
2023-04-28T16:11:20.347Z,100555.88
2023-04-28T16:13:48.110Z,100555.03
2023-04-28T16:16:16.025Z,100557.00
2023-04-28T16:18:44.284Z,100549.00
2023-04-28T16:21:12.371Z,100549.00
2023-04-28T16:23:40.082Z,100546.94
2023-04-28T16:26:08.068Z,100548.09
2023-04-28T16:28:35.689Z,100548.84
2023-04-28T16:31:03.811Z,100545.16
2023-04-28T16:33:31.514Z,100541.19
2023-04-28T16:35:59.843Z,100546.63
2023-04-28T16:38:27.633Z,100543.00
2023-04-28T16:40:55.712Z,100541.44
2023-04-28T16:43:23.358Z,100546.22
2023-04-28T16:45:51.448Z,100533.63
2023-04-28T16:48:20.740Z,100536.25
2023-04-28T16:50:48.663Z,100533.69
2023-04-28T16:53:16.308Z,100535.16
2023-04-28T16:55:44.382Z,100533.19
2023-04-28T16:58:12.044Z,100535.03
2023-04-28T17:00:40.047Z,100530.00
2023-04-28T17:03:07.872Z,100531.16
2023-04-28T17:05:36.145Z,100527.28
2023-04-28T17:08:03.929Z,100521.50
2023-04-28T17:10:32.484Z,100529.81
2023-04-28T17:13:00.230Z,100529.47
2023-04-28T17:15:28.126Z,100519.28
2023-04-28T17:17:56.596Z,100522.41
2023-04-28T17:20:24.593Z,100522.91
2023-04-28T17:22:53.120Z,100523.19
2023-04-28T17:25:23.568Z,100515.66
2023-04-28T17:27:51.317Z,100522.81
2023-04-28T17:30:19.280Z,100517.88
2023-04-28T17:32:46.977Z,100520.16
2023-04-28T17:35:15.024Z,100516.09
2023-04-28T17:37:42.779Z,100521.00
2023-04-28T17:40:11.207Z,100519.03
2023-04-28T17:42:39.007Z,100516.69
2023-04-28T17:45:07.788Z,100516.75
2023-04-28T17:47:36.364Z,100515.66
2023-04-28T17:50:05.203Z,100511.44
2023-04-28T17:52:33.016Z,100511.34
2023-04-28T17:55:00.944Z,100517.91
2023-04-28T17:57:28.711Z,100508.50
2023-04-28T17:59:56.739Z,100512.38
2023-04-28T18:02:24.566Z,100509.09
2023-04-28T18:04:53.064Z,100509.63
2023-04-28T18:07:21.193Z,100516.34
2023-04-28T18:09:49.184Z,100507.94
2023-04-28T18:12:17.157Z,100503.91
2023-04-28T18:14:45.465Z,100512.56
2023-04-28T18:17:13.186Z,100510.03
2023-04-28T18:19:42.113Z,100511.59
2023-04-28T18:22:10.034Z,100514.44
2023-04-28T18:24:38.032Z,100515.81
2023-04-28T18:27:05.665Z,100519.34
2023-04-28T18:29:33.568Z,100524.31
2023-04-28T18:32:01.338Z,100515.88
2023-04-28T18:34:29.359Z,100520.25
2023-04-28T18:36:57.131Z,100517.75
2023-04-28T18:39:25.362Z,100528.53
2023-04-28T18:41:53.182Z,100516.91
2023-04-28T18:44:21.090Z,100531.97
2023-04-28T18:46:48.912Z,100520.72
2023-04-28T18:49:16.797Z,100535.47
2023-04-28T18:51:44.490Z,100524.16
2023-04-28T18:54:15.870Z,100528.78
2023-04-28T18:56:48.086Z,100520.38
2023-04-28T18:59:16.250Z,100519.63
2023-04-28T19:01:43.891Z,100524.94
2023-04-28T19:04:12.168Z,100524.00
2023-04-28T19:06:40.072Z,100516.25
2023-04-28T19:09:08.059Z,100520.63
2023-04-28T19:11:35.789Z,100520.56
2023-04-28T19:14:03.777Z,100522.38
2023-04-28T19:16:31.515Z,100519.78
2023-04-28T19:18:59.864Z,100524.13
2023-04-28T19:21:29.474Z,100519.13
2023-04-28T19:23:57.660Z,100516.00
2023-04-28T19:26:25.423Z,100506.88
2023-04-28T19:28:53.465Z,100500.81
2023-04-28T19:31:21.122Z,100502.56
2023-04-28T19:33:49.176Z,100514.72
2023-04-28T19:36:16.819Z,100509.56
2023-04-28T19:38:44.742Z,100506.19
2023-04-28T19:41:12.463Z,100508.19
2023-04-28T19:43:40.721Z,100508.41
2023-04-28T19:46:08.975Z,100499.66
2023-04-28T19:48:36.948Z,100508.53
2023-04-28T19:51:04.775Z,100498.16
2023-04-28T19:53:33.964Z,100504.03
2023-04-28T19:56:02.176Z,100505.78
2023-04-28T19:58:30.350Z,100503.66
2023-04-28T20:00:58.461Z,100498.53
2023-04-28T20:03:27.039Z,100498.47
2023-04-28T20:05:54.816Z,100506.09
2023-04-28T20:08:25.645Z,100511.28
2023-04-28T20:10:54.984Z,100508.69
2023-04-28T20:13:23.014Z,100514.03
2023-04-28T20:15:50.864Z,100510.56
2023-04-28T20:18:19.032Z,100509.03
2023-04-28T20:20:46.709Z,100503.09
2023-04-28T20:23:14.691Z,100499.84
2023-04-28T20:25:42.471Z,100502.38
2023-04-28T20:28:10.438Z,100509.22
2023-04-28T20:30:38.467Z,100505.88
2023-04-28T20:33:06.550Z,100505.97
2023-04-28T20:35:34.359Z,100505.56
2023-04-28T20:38:02.337Z,100508.53
2023-04-28T20:40:30.796Z,100512.84
2023-04-28T20:43:01.653Z,100512.94
2023-04-28T20:45:32.745Z,100505.25
2023-04-28T20:48:00.765Z,100499.25
2023-04-28T20:50:33.199Z,100503.72
2023-04-28T20:53:01.499Z,100499.47
2023-04-28T20:55:29.310Z,100506.53
2023-04-28T20:57:57.178Z,100500.66
2023-04-28T21:00:24.835Z,100496.38
2023-04-28T21:02:53.115Z,100494.69
2023-04-28T21:05:20.998Z,100494.97
2023-04-28T21:07:49.053Z,100491.63
2023-04-28T21:10:16.851Z,100504.63
2023-04-28T21:12:45.607Z,100493.25
2023-04-28T21:15:13.504Z,100486.19
2023-04-28T21:17:41.513Z,100495.06
2023-04-28T21:20:09.576Z,100479.56
2023-04-28T21:22:37.778Z,100490.50
2023-04-28T21:25:07.102Z,100488.59
2023-04-28T21:27:35.096Z,100490.31
2023-04-28T21:30:02.919Z,100491.13
2023-04-28T21:32:31.108Z,100479.81
2023-04-28T21:34:58.730Z,100490.25
2023-04-28T21:37:26.954Z,100490.25
2023-04-28T21:39:58.023Z,100492.25
2023-04-28T21:42:27.771Z,100486.06
2023-04-28T21:44:55.446Z,100474.72
2023-04-28T21:47:23.482Z,100484.41
2023-04-28T21:49:51.485Z,100486.13
2023-04-28T21:52:19.572Z,100483.53
2023-04-28T21:54:47.472Z,100491.34
2023-04-28T21:57:15.905Z,100483.53
2023-04-28T21:59:44.056Z,100482.75
2023-04-28T22:02:13.108Z,100488.16
2023-04-28T22:04:41.392Z,100494.97
2023-04-28T22:07:09.380Z,100488.34
2023-04-28T22:09:37.176Z,100483.34
2023-04-28T22:12:05.165Z,100478.13
2023-04-28T22:14:40.633Z,100479.03
2023-04-28T22:17:09.764Z,100471.25
2023-04-28T22:19:37.820Z,100478.91
2023-04-28T22:22:07.679Z,100478.16
2023-04-28T22:24:35.577Z,100474.72
2023-04-28T22:27:03.895Z,100477.16
2023-04-28T22:29:31.580Z,100469.56
2023-04-28T22:31:59.525Z,100472.94
2023-04-28T22:34:27.225Z,100466.88
2023-04-28T22:36:55.145Z,100476.69
2023-04-28T22:39:25.165Z,100464.81
2023-04-28T22:41:53.292Z,100475.00
2023-04-28T22:44:21.218Z,100474.97
2023-04-28T22:46:49.285Z,100475.88
2023-04-28T22:49:17.307Z,100476.94
2023-04-28T22:51:45.194Z,100467.41
2023-04-28T22:54:13.763Z,100473.53
2023-04-28T22:56:41.834Z,100470.03
2023-04-28T22:59:09.595Z,100470.00
2023-04-28T23:01:37.783Z,100469.19
2023-04-28T23:04:06.192Z,100457.06
2023-04-28T23:06:34.364Z,100468.38
2023-04-28T23:09:03.676Z,100461.53
2023-04-28T23:11:31.724Z,100458.19
2023-04-28T23:13:59.363Z,100466.00
2023-04-28T23:16:27.414Z,100458.97
2023-04-28T23:18:55.049Z,100459.91
2023-04-28T23:21:23.563Z,100463.31
2023-04-28T23:23:51.583Z,100456.44
2023-04-28T23:26:21.038Z,100459.91
2023-04-28T23:28:48.925Z,100457.53
2023-04-28T23:31:16.960Z,100454.06
2023-04-28T23:33:44.688Z,100450.47
2023-04-28T23:36:12.672Z,100440.94
2023-04-28T23:38:40.478Z,100444.56
2023-04-28T23:41:09.166Z,100442.88
2023-04-28T23:43:36.902Z,100446.25
2023-04-28T23:46:04.920Z,100444.66
2023-04-28T23:48:33.018Z,100439.63
2023-04-28T23:51:00.915Z,100432.63
2023-04-28T23:53:28.548Z,100429.97
2023-04-28T23:55:56.459Z,100432.50
2023-04-28T23:58:24.122Z,100433.44
